createdAt,value
2023-01-12T00:01:42.424Z,19.80
2023-01-12T00:04:17.049Z,18.20
2023-01-12T00:06:49.257Z,20.40
2023-01-12T00:09:21.548Z,38.30
2023-01-12T00:11:53.613Z,20.40
2023-01-12T00:14:25.830Z,19.40
2023-01-12T00:16:58.305Z,18.00
2023-01-12T00:19:30.528Z,18.10
2023-01-12T00:22:09.027Z,21.10
2023-01-12T00:24:44.102Z,17.90
2023-01-12T00:27:19.247Z,18.00
2023-01-12T00:29:51.743Z,17.70
2023-01-12T00:32:23.911Z,16.90
2023-01-12T00:34:56.132Z,18.10
2023-01-12T00:37:28.375Z,17.30
2023-01-12T00:40:03.042Z,18.00
2023-01-12T00:45:24.717Z,16.10
2023-01-12T00:47:57.169Z,17.30
2023-01-12T00:50:29.368Z,16.60
2023-01-12T00:53:01.590Z,17.10
2023-01-12T00:55:33.780Z,17.50
2023-01-12T00:58:06.328Z,17.20
2023-01-12T01:00:38.549Z,19.10
2023-01-12T01:03:10.741Z,17.70
2023-01-12T01:05:43.168Z,18.10
2023-01-12T01:08:15.366Z,17.40
2023-01-12T01:10:47.535Z,17.10
2023-01-12T01:13:19.694Z,21.60
2023-01-12T01:15:51.844Z,17.90
2023-01-12T01:18:24.109Z,20.10
2023-01-12T01:20:56.917Z,17.60
2023-01-12T01:23:30.548Z,17.60
2023-01-12T01:26:07.475Z,18.60
2023-01-12T01:28:40.064Z,18.20
2023-01-12T01:31:15.464Z,18.80
2023-01-12T01:33:48.025Z,18.60
2023-01-12T01:36:21.169Z,18.70
2023-01-12T01:38:53.571Z,18.20
2023-01-12T01:41:27.859Z,20.70
2023-01-12T01:44:02.922Z,22.30
2023-01-12T01:46:45.280Z,30.50
2023-01-12T01:49:37.116Z,25.80
2023-01-12T01:52:16.444Z,20.70
2023-01-12T01:54:53.013Z,21.60
2023-01-12T01:57:31.692Z,24.50
2023-01-12T02:00:08.045Z,33.50
2023-01-12T02:02:42.304Z,29.90
2023-01-12T02:05:18.859Z,29.70
2023-01-12T02:07:51.898Z,33.10
2023-01-12T02:10:24.395Z,21.50
2023-01-12T02:13:14.418Z,22.10
2023-01-12T02:16:22.932Z,20.10
2023-01-12T02:19:16.095Z,23.50
2023-01-12T02:22:28.310Z,20.00
2023-01-12T02:25:29.193Z,24.40
2023-01-12T02:28:36.639Z,28.60
2023-01-12T02:31:32.160Z,21.50
2023-01-12T02:36:53.898Z,21.30
2023-01-12T02:39:30.979Z,19.90
2023-01-12T02:42:29.008Z,25.90
2023-01-12T02:45:08.659Z,19.20
2023-01-12T02:47:45.787Z,22.20
2023-01-12T02:50:22.206Z,20.70
2023-01-12T02:53:01.105Z,23.20
2023-01-12T02:55:34.853Z,24.10
2023-01-12T02:58:11.305Z,25.60
2023-01-12T03:00:48.359Z,26.10
2023-01-12T03:03:22.165Z,22.10
2023-01-12T03:05:59.763Z,22.60
2023-01-12T03:08:34.159Z,25.20
2023-01-12T03:11:13.219Z,23.00
2023-01-12T03:13:50.142Z,21.30
2023-01-12T03:16:26.851Z,23.50
2023-01-12T03:19:03.107Z,20.60
2023-01-12T03:21:41.143Z,21.50
2023-01-12T03:24:16.747Z,21.20
2023-01-12T03:26:52.313Z,20.50
2023-01-12T03:29:31.136Z,21.30
2023-01-12T03:32:03.872Z,20.70
2023-01-12T03:34:37.726Z,20.70
2023-01-12T03:37:17.446Z,23.10
2023-01-12T03:39:59.444Z,19.90
2023-01-12T03:42:38.788Z,19.00
2023-01-12T03:45:23.517Z,21.90
2023-01-12T03:48:01.471Z,22.00
2023-01-12T03:50:41.096Z,20.20
2023-01-12T03:53:15.280Z,19.40
2023-01-12T03:55:50.238Z,19.50
2023-01-12T04:00:53.415Z,16.90
2023-01-12T04:03:25.892Z,16.70
2023-01-12T04:05:58.220Z,16.60
2023-01-12T04:08:30.493Z,16.70
2023-01-12T04:11:23.968Z,21.40
2023-01-12T04:13:56.147Z,29.30
2023-01-12T04:16:28.305Z,23.20
2023-01-12T04:19:00.693Z,32.10
2023-01-12T04:21:50.506Z,37.50
2023-01-12T04:24:23.003Z,25.60
2023-01-12T04:26:55.175Z,27.90
2023-01-12T04:29:27.389Z,28.80
2023-01-12T04:31:59.638Z,29.90
2023-01-12T04:34:31.879Z,40.70
2023-01-12T04:37:04.694Z,38.90
2023-01-12T04:39:36.882Z,35.20
2023-01-12T04:42:30.224Z,35.60
2023-01-12T04:45:02.399Z,22.80
2023-01-12T04:47:36.172Z,25.80
2023-01-12T04:50:10.219Z,25.20
2023-01-12T04:52:42.428Z,24.00
2023-01-12T04:55:14.699Z,20.20
2023-01-12T04:57:47.662Z,18.80
2023-01-12T05:00:21.312Z,19.30
2023-01-12T05:02:56.576Z,18.40
2023-01-12T05:05:29.077Z,19.40
2023-01-12T05:08:21.830Z,18.00
2023-01-12T05:10:55.157Z,16.00
2023-01-12T05:13:29.013Z,18.30
2023-01-12T05:16:11.146Z,17.90
2023-01-12T05:18:44.895Z,19.70
2023-01-12T05:21:18.136Z,19.50
2023-01-12T05:23:50.659Z,20.10
2023-01-12T05:26:23.008Z,19.20
2023-01-12T05:28:55.226Z,19.40
2023-01-12T05:31:27.368Z,18.70
2023-01-12T05:33:59.597Z,30.20
2023-01-12T05:36:31.740Z,21.80
2023-01-12T05:39:05.504Z,17.00
2023-01-12T05:41:37.701Z,18.30
2023-01-12T05:44:11.641Z,16.30
2023-01-12T05:46:43.798Z,17.30
2023-01-12T05:49:15.976Z,18.90
2023-01-12T05:51:48.230Z,17.50
2023-01-12T05:54:20.415Z,21.80
2023-01-12T05:56:52.761Z,15.80
2023-01-12T05:59:25.294Z,15.40
2023-01-12T06:01:57.483Z,16.00
2023-01-12T06:04:29.733Z,18.80
2023-01-12T06:07:01.878Z,21.60
2023-01-12T06:09:34.115Z,18.80
2023-01-12T06:12:24.625Z,18.30
2023-01-12T06:14:56.795Z,19.00
2023-01-12T06:17:28.991Z,18.10
2023-01-12T06:20:01.224Z,18.50
2023-01-12T06:22:33.499Z,39.40
2023-01-12T06:25:06.067Z,22.80
2023-01-12T06:27:38.654Z,21.70
2023-01-12T06:30:13.190Z,18.40
2023-01-12T06:35:19.415Z,17.50
2023-01-12T06:37:56.266Z,17.20
2023-01-12T06:40:28.455Z,16.60
2023-01-12T06:43:00.626Z,17.70
2023-01-12T06:45:32.946Z,16.00
2023-01-12T06:48:05.597Z,18.10
2023-01-12T06:50:38.736Z,15.80
2023-01-12T06:53:11.108Z,15.50
2023-01-12T06:55:48.709Z,14.60
2023-01-12T06:58:20.982Z,19.40
2023-01-12T07:00:53.233Z,15.60
2023-01-12T07:03:25.595Z,21.70
2023-01-12T07:06:01.009Z,22.20
2023-01-12T07:08:34.461Z,16.20
2023-01-12T07:11:08.703Z,14.10
2023-01-12T07:13:40.974Z,14.90
2023-01-12T07:16:13.861Z,14.70
2023-01-12T07:18:47.588Z,13.40
2023-01-12T07:21:20.270Z,14.80
2023-01-12T07:23:52.410Z,16.70
2023-01-12T07:26:24.559Z,14.40
2023-01-12T07:28:58.185Z,14.80
2023-01-12T07:31:30.828Z,16.30
2023-01-12T07:34:03.097Z,15.60
2023-01-12T07:36:35.328Z,16.60
2023-01-12T07:39:08.773Z,14.90
2023-01-12T07:41:58.965Z,15.90
2023-01-12T07:44:31.252Z,13.90
2023-01-12T07:47:03.658Z,16.50
2023-01-12T07:49:35.802Z,18.50
2023-01-12T07:52:08.430Z,50.10
2023-01-12T07:54:40.959Z,33.30
2023-01-12T07:57:13.843Z,46.00
2023-01-12T07:59:45.959Z,121.80
2023-01-12T08:02:19.446Z,25.10
2023-01-12T08:04:52.063Z,16.20
2023-01-12T08:07:24.185Z,30.10
2023-01-12T08:09:56.298Z,30.00
2023-01-12T08:12:30.079Z,20.70
2023-01-12T08:15:04.016Z,20.60
2023-01-12T08:17:41.428Z,25.20
2023-01-12T08:20:19.282Z,32.40
2023-01-12T08:22:55.722Z,17.80
2023-01-12T08:25:32.768Z,19.90
2023-01-12T08:28:09.787Z,25.40
2023-01-12T08:30:42.135Z,22.50
2023-01-12T08:33:15.023Z,19.50
2023-01-12T08:35:48.420Z,20.70
2023-01-12T08:38:20.636Z,14.80
2023-01-12T08:41:10.340Z,14.90
2023-01-12T08:44:00.388Z,18.50
2023-01-12T08:46:33.674Z,15.90
2023-01-12T08:49:10.016Z,13.90
2023-01-12T08:51:42.667Z,14.30
2023-01-12T08:54:17.297Z,14.90
2023-01-12T08:56:50.525Z,16.20
2023-01-12T08:59:22.886Z,18.50
2023-01-12T09:01:55.257Z,22.30
2023-01-12T09:04:27.758Z,14.50
2023-01-12T09:07:00.280Z,12.30
2023-01-12T09:09:32.556Z,15.20
2023-01-12T09:12:05.061Z,13.50
2023-01-12T09:14:39.088Z,13.60
2023-01-12T09:17:11.341Z,13.30
2023-01-12T09:19:45.683Z,15.00
2023-01-12T09:22:17.882Z,16.20
2023-01-12T09:24:50.038Z,13.90
2023-01-12T09:27:22.239Z,13.90
2023-01-12T09:29:54.422Z,11.20
2023-01-12T09:32:36.156Z,10.00
2023-01-12T09:35:10.222Z,15.30
2023-01-12T09:37:43.769Z,12.90
2023-01-12T09:40:19.321Z,12.80
2023-01-12T09:43:10.679Z,12.40
2023-01-12T09:46:01.858Z,12.50
2023-01-12T09:48:34.222Z,9.70
2023-01-12T09:51:13.573Z,11.60
2023-01-12T09:53:47.503Z,9.60
2023-01-12T09:56:26.292Z,10.20
2023-01-12T09:59:10.255Z,10.80
2023-01-12T10:01:42.534Z,18.30
2023-01-12T10:04:15.775Z,17.30
2023-01-12T10:06:48.120Z,27.10
2023-01-12T10:09:22.772Z,23.30
2023-01-12T10:12:04.594Z,38.50
2023-01-12T10:15:06.224Z,35.30
2023-01-12T10:17:51.640Z,31.70
2023-01-12T10:20:31.678Z,32.80
2023-01-12T10:23:14.814Z,17.10
2023-01-12T10:25:50.635Z,14.80
2023-01-12T10:28:27.161Z,9.90
2023-01-12T10:31:00.452Z,10.70
2023-01-12T10:33:34.551Z,10.10
2023-01-12T10:36:10.087Z,11.10
2023-01-12T10:38:57.956Z,11.00
2023-01-12T10:41:30.935Z,10.90
2023-01-12T10:44:22.507Z,13.40
2023-01-12T10:47:10.958Z,11.50
2023-01-12T10:49:43.149Z,9.40
2023-01-12T10:52:33.239Z,9.90
2023-01-12T10:55:05.995Z,9.00
2023-01-12T10:57:38.219Z,10.10
2023-01-12T11:00:25.306Z,9.80
2023-01-12T11:02:58.891Z,8.80
2023-01-12T11:05:36.881Z,9.30
2023-01-12T11:08:25.084Z,9.00
2023-01-12T11:10:57.305Z,8.50
2023-01-12T11:13:36.879Z,55.50
2023-01-12T11:16:20.689Z,11.60
2023-01-12T11:19:05.705Z,7.70
2023-01-12T11:21:43.583Z,9.90
2023-01-12T11:24:27.094Z,9.50
2023-01-12T11:27:02.472Z,10.70
2023-01-12T11:29:46.045Z,10.90
2023-01-12T11:32:23.693Z,8.30
2023-01-12T11:34:58.910Z,9.20
2023-01-12T11:37:34.839Z,7.10
2023-01-12T11:40:19.680Z,8.70
2023-01-12T11:43:11.406Z,7.40
2023-01-12T11:45:48.449Z,7.40
2023-01-12T11:48:27.471Z,7.80
2023-01-12T11:51:01.925Z,7.70
2023-01-12T11:53:34.648Z,11.10
2023-01-12T11:56:23.353Z,9.50
2023-01-12T11:59:06.993Z,15.10
2023-01-12T12:01:49.449Z,15.00
2023-01-12T12:04:37.464Z,18.50
2023-01-12T12:07:21.176Z,18.10
2023-01-12T12:10:07.122Z,16.40
2023-01-12T12:12:47.072Z,12.50
2023-01-12T12:15:33.782Z,16.10
2023-01-12T12:18:17.543Z,13.70
2023-01-12T12:21:03.461Z,15.70
2023-01-12T12:23:46.512Z,13.10
2023-01-12T12:26:25.482Z,16.10
2023-01-12T12:29:25.113Z,14.20
2023-01-12T12:32:11.704Z,12.10
2023-01-12T12:35:00.322Z,17.40
2023-01-12T12:37:48.395Z,13.90
2023-01-12T12:40:56.421Z,12.80
2023-01-12T12:43:50.820Z,12.50
2023-01-12T12:46:33.441Z,14.10
2023-01-12T12:49:10.752Z,13.40
2023-01-12T12:51:44.608Z,10.90
2023-01-12T12:54:19.846Z,14.30
2023-01-12T12:56:52.505Z,12.50
2023-01-12T12:59:59.734Z,10.80
2023-01-12T13:02:39.360Z,9.90
2023-01-12T13:05:12.833Z,19.00
2023-01-12T13:07:52.970Z,12.00
2023-01-12T13:10:32.701Z,8.40
2023-01-12T13:13:27.540Z,9.50
2023-01-12T13:16:36.645Z,12.70
2023-01-12T13:19:13.963Z,8.20
2023-01-12T13:21:58.645Z,11.60
2023-01-12T13:24:43.395Z,12.20
2023-01-12T13:27:55.797Z,12.80
2023-01-12T13:30:50.691Z,10.70
2023-01-12T13:33:28.825Z,8.40
2023-01-12T13:36:10.570Z,11.70
2023-01-12T13:39:08.248Z,11.00
2023-01-12T13:42:01.728Z,9.40
2023-01-12T13:44:38.908Z,7.70
2023-01-12T13:47:17.225Z,10.60
2023-01-12T13:49:54.189Z,15.40
2023-01-12T13:52:33.193Z,13.40
2023-01-12T13:55:18.877Z,9.80
2023-01-12T13:58:02.160Z,7.80
2023-01-12T14:00:35.196Z,13.20
2023-01-12T14:03:15.141Z,8.50
2023-01-12T14:06:00.517Z,9.90
2023-01-12T14:08:54.497Z,8.30
2023-01-12T14:11:43.548Z,11.50
2023-01-12T14:14:52.085Z,9.90
2023-01-12T14:17:48.293Z,13.80
2023-01-12T14:20:23.257Z,9.90
2023-01-12T14:25:45.560Z,16.40
2023-01-12T14:28:23.883Z,8.50
2023-01-12T14:30:57.920Z,12.60
2023-01-12T14:33:34.144Z,10.60
2023-01-12T14:36:13.539Z,12.50
2023-01-12T14:38:47.344Z,21.80
2023-01-12T14:41:41.804Z,17.90
2023-01-12T14:44:54.626Z,14.20
2023-01-12T14:47:29.942Z,26.20
2023-01-12T14:50:19.286Z,50.50
2023-01-12T14:52:53.571Z,28.00
2023-01-12T14:55:39.522Z,22.50
2023-01-12T14:58:22.700Z,14.00
2023-01-12T15:00:55.045Z,11.90
2023-01-12T15:03:35.280Z,10.50
2023-01-12T15:06:18.894Z,11.30
2023-01-12T15:09:00.463Z,10.00
2023-01-12T15:11:35.892Z,15.80
2023-01-12T15:14:22.048Z,19.60
2023-01-12T15:17:12.425Z,17.60
2023-01-12T15:20:02.477Z,19.60
2023-01-12T15:22:52.410Z,19.90
2023-01-12T15:25:37.200Z,21.20
2023-01-12T15:28:10.190Z,12.30
2023-01-12T15:30:42.356Z,22.30
2023-01-12T15:33:16.549Z,21.20
2023-01-12T15:35:49.180Z,14.60
2023-01-12T15:38:21.885Z,19.30
2023-01-12T15:40:54.205Z,22.30
2023-01-12T15:43:26.426Z,13.90
2023-01-12T15:45:58.800Z,14.30
2023-01-12T15:48:31.018Z,13.90
2023-01-12T15:51:03.238Z,16.30
2023-01-12T15:53:35.354Z,14.40
2023-01-12T15:56:12.220Z,16.10
2023-01-12T15:58:44.453Z,10.60
2023-01-12T16:01:20.211Z,15.30
2023-01-12T16:04:25.041Z,14.90
2023-01-12T16:06:45.103Z,11.80
2023-01-12T16:09:17.609Z,9.50
2023-01-12T16:11:49.768Z,8.90
2023-01-12T16:14:21.935Z,7.80
2023-01-12T16:16:54.321Z,9.90
2023-01-12T16:19:28.378Z,13.70
2023-01-12T16:22:00.514Z,10.00
2023-01-12T16:24:32.863Z,13.60
2023-01-12T16:27:05.540Z,9.10
2023-01-12T16:29:37.807Z,13.40
2023-01-12T16:32:10.626Z,11.00
2023-01-12T16:34:43.548Z,14.30
2023-01-12T16:37:17.515Z,10.90
2023-01-12T16:39:50.168Z,13.00
2023-01-12T16:42:22.390Z,8.60
2023-01-12T16:44:54.560Z,8.40
2023-01-12T16:47:26.802Z,10.20
2023-01-12T16:49:59.186Z,9.80
2023-01-12T16:52:31.446Z,11.20
2023-01-12T16:55:05.007Z,10.70
2023-01-12T16:57:37.451Z,9.20
2023-01-12T17:00:12.233Z,8.90
2023-01-12T17:02:44.672Z,8.80
2023-01-12T17:05:17.223Z,19.20
2023-01-12T17:07:50.088Z,11.70
2023-01-12T17:10:22.563Z,8.90
2023-01-12T17:12:58.839Z,10.50
2023-01-12T17:15:34.913Z,9.40
2023-01-12T17:18:07.435Z,12.70
2023-01-12T17:20:39.914Z,32.10
2023-01-12T17:23:12.315Z,7.50
2023-01-12T17:25:44.508Z,7.10
2023-01-12T17:28:16.774Z,8.80
2023-01-12T17:30:49.089Z,9.20
2023-01-12T17:33:22.393Z,9.50
2023-01-12T17:35:55.428Z,6.90
2023-01-12T17:38:27.757Z,9.20
2023-01-12T17:41:00.258Z,7.70
2023-01-12T17:43:32.528Z,14.70
2023-01-12T17:46:07.695Z,21.70
2023-01-12T17:48:40.060Z,20.50
2023-01-12T17:51:14.304Z,14.50
2023-01-12T17:53:46.578Z,38.20
2023-01-12T17:56:18.871Z,47.90
2023-01-12T17:58:54.332Z,56.90
2023-01-12T18:01:29.441Z,86.00
2023-01-12T18:06:33.972Z,53.50
2023-01-12T18:09:07.293Z,44.30
2023-01-12T18:11:40.122Z,16.10
2023-01-12T18:14:12.908Z,16.30
2023-01-12T18:16:45.387Z,14.90
2023-01-12T18:19:17.859Z,16.00
2023-01-12T18:21:52.096Z,11.60
2023-01-12T18:24:24.454Z,19.70
2023-01-12T18:26:56.766Z,10.40
2023-01-12T18:29:29.249Z,9.10
2023-01-12T18:32:01.588Z,10.80
2023-01-12T18:34:33.892Z,13.00
2023-01-12T18:37:06.180Z,8.70
2023-01-12T18:39:40.218Z,18.60
2023-01-12T18:42:30.483Z,9.00
2023-01-12T18:45:04.713Z,9.40
2023-01-12T18:47:55.006Z,11.70
2023-01-12T18:50:45.261Z,49.50
2023-01-12T18:53:25.356Z,42.60
2023-01-12T18:55:58.702Z,46.50
2023-01-12T18:58:32.835Z,64.30
2023-01-12T19:01:07.098Z,32.00
2023-01-12T19:03:39.495Z,22.50
2023-01-12T19:06:22.949Z,12.40
2023-01-12T19:09:13.423Z,9.40
2023-01-12T19:11:45.795Z,13.50
2023-01-12T19:14:36.272Z,15.20
2023-01-12T19:17:29.721Z,9.10
2023-01-12T19:20:03.670Z,10.60
2023-01-12T19:22:53.604Z,9.90
2023-01-12T19:25:43.848Z,9.80
2023-01-12T19:28:35.831Z,17.10
2023-01-12T19:31:11.043Z,10.10
2023-01-12T19:33:44.391Z,12.20
2023-01-12T19:36:16.862Z,7.90
2023-01-12T19:38:51.185Z,11.20
2023-01-12T19:41:37.494Z,11.60
2023-01-12T19:44:09.940Z,14.30
2023-01-12T19:46:42.390Z,36.60
2023-01-12T19:49:17.001Z,50.20
2023-01-12T19:51:49.978Z,63.20
2023-01-12T19:54:22.380Z,62.00
2023-01-12T19:56:54.799Z,32.00
2023-01-12T19:59:28.052Z,42.50
2023-01-12T20:02:01.442Z,21.40
2023-01-12T20:04:34.501Z,14.50
2023-01-12T20:07:08.018Z,10.00
2023-01-12T20:09:40.404Z,10.50
2023-01-12T20:12:12.647Z,12.80
2023-01-12T20:14:45.120Z,14.10
2023-01-12T20:17:17.482Z,8.00
2023-01-12T20:19:51.200Z,12.60
2023-01-12T20:22:23.903Z,14.20
2023-01-12T20:25:01.150Z,9.30
2023-01-12T20:27:34.358Z,10.00
2023-01-12T20:30:08.399Z,9.40
2023-01-12T20:32:42.814Z,5.70
2023-01-12T20:35:17.798Z,8.10
2023-01-12T20:40:22.059Z,9.20
2023-01-12T20:42:54.460Z,19.00
2023-01-12T20:45:27.321Z,10.20
2023-01-12T20:47:59.694Z,15.80
2023-01-12T20:50:32.320Z,51.40
2023-01-12T20:53:04.769Z,57.50
2023-01-12T20:55:42.011Z,52.00
2023-01-12T20:58:14.774Z,62.10
2023-01-12T21:00:47.348Z,35.20
2023-01-12T21:03:20.374Z,23.20
2023-01-12T21:05:52.966Z,13.40
2023-01-12T21:08:25.409Z,14.80
2023-01-12T21:10:59.719Z,11.20
2023-01-12T21:13:32.330Z,8.90
2023-01-12T21:16:07.041Z,9.50
2023-01-12T21:18:39.662Z,13.00
2023-01-12T21:21:13.348Z,10.40
2023-01-12T21:23:45.815Z,7.50
2023-01-12T21:26:18.258Z,6.10
2023-01-12T21:28:50.653Z,7.20
2023-01-12T21:31:23.291Z,7.00
2023-01-12T21:33:55.669Z,5.70
2023-01-12T21:36:28.089Z,5.80
2023-01-12T21:39:00.728Z,6.10
2023-01-12T21:41:53.600Z,6.40
2023-01-12T21:44:25.997Z,6.00
2023-01-12T21:46:58.395Z,5.90
2023-01-12T21:49:30.795Z,5.80
2023-01-12T21:52:03.402Z,6.00
2023-01-12T21:54:35.771Z,5.20
2023-01-12T21:57:08.377Z,5.60
2023-01-12T21:59:40.824Z,6.10
2023-01-12T22:02:14.300Z,5.30
2023-01-12T22:04:46.847Z,5.10
2023-01-12T22:07:19.231Z,5.90
2023-01-12T22:09:51.623Z,5.90
2023-01-12T22:12:23.969Z,5.00
2023-01-12T22:14:56.416Z,5.10
2023-01-12T22:17:28.893Z,5.50
2023-01-12T22:20:01.552Z,4.90
2023-01-12T22:22:34.075Z,5.60
2023-01-12T22:25:09.784Z,6.50
2023-01-12T22:27:42.750Z,5.30
2023-01-12T22:30:18.212Z,4.60
2023-01-12T22:32:52.808Z,6.30
2023-01-12T22:35:26.261Z,5.00
2023-01-12T22:37:58.636Z,10.30
2023-01-12T22:40:31.570Z,6.20
2023-01-12T22:43:21.758Z,6.50
2023-01-12T22:45:58.137Z,5.20
2023-01-12T22:48:30.781Z,4.90
2023-01-12T22:51:04.278Z,5.80
2023-01-12T22:53:36.886Z,5.40
2023-01-12T22:56:11.642Z,6.00
2023-01-12T22:58:49.118Z,7.40
2023-01-12T23:01:22.809Z,7.00
2023-01-12T23:03:57.924Z,6.30
2023-01-12T23:06:30.458Z,6.50
2023-01-12T23:09:03.183Z,5.70
2023-01-12T23:11:35.787Z,9.40
2023-01-12T23:14:08.328Z,6.50
2023-01-12T23:16:40.758Z,5.00
2023-01-12T23:19:13.443Z,5.10
2023-01-12T23:21:48.928Z,26.70
2023-01-12T23:24:21.344Z,7.90
2023-01-12T23:26:54.150Z,6.20
2023-01-12T23:29:26.533Z,6.70
2023-01-12T23:31:59.048Z,6.80
2023-01-12T23:34:31.660Z,6.60
2023-01-12T23:37:04.101Z,13.60
2023-01-12T23:39:36.628Z,10.10
2023-01-12T23:42:09.101Z,5.80
2023-01-12T23:44:41.525Z,5.80
2023-01-12T23:47:15.870Z,5.60
2023-01-12T23:49:48.250Z,5.20
2023-01-12T23:52:20.668Z,6.40
2023-01-12T23:54:55.890Z,5.40
2023-01-12T23:57:29.052Z,6.00
